Time;durP1;ratioP1;P1;durP2;ratioP2;P2;SDS_P1;SDS_P2;PMS_P1;PMS_P2;Temp;Humidity;BMP_temperature;BMP_pressure;BME280_temperature;BME280_humidity;BME280_pressure;Samples;Min_cycle;Max_cycle;Signal;HPM_P1;HPM_P2
2021/06/05 00:02:15;;;;;;;11.35;10.15;;;;;;;;;;5088595;28;20439;-82
2021/06/05 00:04:41;;;;;;;10.30;9.23;;;;;;;;;;5088661;28;20404;-80
2021/06/05 00:07:07;;;;;;;10.15;9.15;;;;;;;;;;5088319;28;20405;-79
2021/06/05 00:09:33;;;;;;;11.20;10.13;;;;;;;;;;5070089;28;20372;-85
2021/06/05 00:11:59;;;;;;;10.80;9.80;;;;;;;;;;5088616;28;20406;-82
2021/06/05 00:14:25;;;;;;;10.50;9.40;;;;;;;;;;5088427;28;20368;-80
2021/06/05 00:16:51;;;;;;;11.07;9.97;;;;;;;;;;5088964;28;20842;-79
2021/06/05 00:19:19;;;;;;;10.50;9.55;;;;;;;;;;5070696;28;20372;-83
2021/06/05 00:21:45;;;;;;;12.60;11.00;;;;;;;;;;5088774;28;20384;-79
2021/06/05 00:24:12;;;;;;;12.57;10.52;;;;;;;;;;5070551;28;20879;-80
2021/06/05 00:26:38;;;;;;;11.05;9.98;;;;;;;;;;5088792;28;20368;-79
2021/06/05 00:29:04;;;;;;;11.25;10.25;;;;;;;;;;5088737;28;20468;-79
2021/06/05 00:31:30;;;;;;;11.10;9.73;;;;;;;;;;5088823;28;20379;-81
2021/06/05 00:33:56;;;;;;;12.07;10.77;;;;;;;;;;5088607;28;20724;-81
2021/06/05 00:36:23;;;;;;;11.38;10.20;;;;;;;;;;5088501;28;20842;-80
2021/06/05 00:38:49;;;;;;;11.15;10.13;;;;;;;;;;5088711;28;20868;-79
2021/06/05 00:41:17;;;;;;;11.70;10.57;;;;;;;;;;5070347;28;20368;-82
2021/06/05 00:43:47;;;;;;;11.50;10.40;;;;;;;;;;5088687;28;20401;-83
2021/06/05 00:46:14;;;;;;;12.32;10.88;;;;;;;;;;5088339;28;20367;-82
2021/06/05 00:48:40;;;;;;;12.15;10.85;;;;;;;;;;5088345;28;20754;-82
2021/06/05 00:51:06;;;;;;;11.50;10.40;;;;;;;;;;5088699;28;20410;-81
2021/06/05 00:53:33;;;;;;;11.38;10.32;;;;;;;;;;5088263;28;20501;-80
2021/06/05 00:56:00;;;;;;;11.23;10.23;;;;;;;;;;5088558;28;20430;-79
2021/06/05 00:58:28;;;;;;;11.65;10.57;;;;;;;;;;5088571;28;20369;-79
2021/06/05 01:00:56;;;;;;;11.63;10.53;;;;;;;;;;5092339;28;20376;-83
2021/06/05 01:03:23;;;;;;;12.10;10.95;;;;;;;;;;5092295;28;20360;-79
2021/06/05 01:05:55;;;;;;;11.33;10.17;;;;;;;;;;5092100;28;20396;-79
2021/06/05 01:08:30;;;;;;;11.45;10.35;;;;;;;;;;5092268;28;20459;-83
2021/06/05 01:10:59;;;;;;;11.70;10.30;;;;;;;;;;5092295;28;20365;-79
2021/06/05 01:13:28;;;;;;;10.75;9.75;;;;;;;;;;5092067;28;20404;-80
2021/06/05 01:16:01;;;;;;;11.52;10.48;;;;;;;;;;5092051;28;20372;-80
2021/06/05 01:18:32;;;;;;;11.35;10.35;;;;;;;;;;5091869;28;20364;-83
2021/06/05 01:21:17;;;;;;;12.20;11.10;;;;;;;;;;5091951;28;20377;-80
2021/06/05 01:24:02;;;;;;;12.02;10.82;;;;;;;;;;5092032;28;20400;-80
2021/06/05 01:26:30;;;;;;;11.73;10.63;;;;;;;;;;5091913;28;20906;-82
2021/06/05 01:29:02;;;;;;;12.82;11.43;;;;;;;;;;5091826;28;20418;-82
2021/06/05 01:31:31;;;;;;;12.70;11.60;;;;;;;;;;5091784;28;20364;-80
2021/06/05 01:33:57;;;;;;;12.82;11.52;;;;;;;;;;5092149;28;20387;-79
2021/06/05 01:36:24;;;;;;;12.07;11.07;;;;;;;;;;5073479;28;20761;-81
2021/06/05 01:38:52;;;;;;;12.60;11.50;;;;;;;;;;5073778;28;20403;-78
2021/06/05 01:41:19;;;;;;;13.10;11.70;;;;;;;;;;5091390;28;20372;-80
2021/06/05 01:43:46;;;;;;;12.10;11.02;;;;;;;;;;5091333;28;20364;-82
2021/06/05 01:46:12;;;;;;;12.63;11.38;;;;;;;;;;5091666;28;20737;-78
2021/06/05 01:48:38;;;;;;;12.00;10.90;;;;;;;;;;5091438;28;20361;-82
2021/06/05 01:51:07;;;;;;;12.35;11.25;;;;;;;;;;5091421;28;20438;-80
2021/06/05 01:53:34;;;;;;;12.95;11.65;;;;;;;;;;5091254;28;20917;-82
2021/06/05 01:56:05;;;;;;;13.45;12.15;;;;;;;;;;5091347;28;20448;-81
2021/06/05 01:58:33;;;;;;;13.23;11.98;;;;;;;;;;5073395;28;21211;-77
2021/06/05 02:00:59;;;;;;;13.20;12.00;;;;;;;;;;5091426;28;20376;-81
2021/06/05 02:03:25;;;;;;;14.13;12.82;;;;;;;;;;5091210;28;20396;-81
2021/06/05 02:05:51;;;;;;;13.70;12.38;;;;;;;;;;5091463;28;20466;-79
2021/06/05 02:08:19;;;;;;;12.87;11.67;;;;;;;;;;5091141;28;20500;-79
2021/06/05 02:10:45;;;;;;;13.27;11.98;;;;;;;;;;5090831;28;20862;-77
2021/06/05 02:13:16;;;;;;;13.20;11.90;;;;;;;;;;5072849;28;20383;-79
2021/06/05 02:15:50;;;;;;;12.52;11.52;;;;;;;;;;5091288;28;20919;-82
2021/06/05 02:18:18;;;;;;;13.60;12.30;;;;;;;;;;5091207;28;20387;-81
2021/06/05 02:20:50;;;;;;;13.55;12.25;;;;;;;;;;5090972;28;20385;-82
2021/06/05 02:23:19;;;;;;;14.43;12.93;;;;;;;;;;5072743;28;20470;-83
2021/06/05 02:25:45;;;;;;;13.50;12.30;;;;;;;;;;5072806;28;20492;-80
2021/06/05 02:28:13;;;;;;;13.07;11.93;;;;;;;;;;5090770;28;20866;-80
2021/06/05 02:30:39;;;;;;;13.07;11.93;;;;;;;;;;5091082;28;20707;-80
2021/06/05 02:33:05;;;;;;;13.25;11.95;;;;;;;;;;5090845;28;20395;-83
2021/06/05 02:35:37;;;;;;;14.18;12.50;;;;;;;;;;5090348;28;20786;-82
2021/06/05 02:38:03;;;;;;;14.27;12.77;;;;;;;;;;5090647;28;20444;-82
2021/06/05 02:40:30;;;;;;;14.25;12.75;;;;;;;;;;5090678;28;20377;-80
2021/06/05 02:42:58;;;;;;;14.52;13.20;;;;;;;;;;5090450;28;20372;-79
2021/06/05 02:45:44;;;;;;;13.27;12.18;;;;;;;;;;5090413;28;20430;-81
2021/06/05 02:48:10;;;;;;;13.67;12.27;;;;;;;;;;5071710;28;20395;-78
2021/06/05 02:50:42;;;;;;;13.50;12.18;;;;;;;;;;5090443;28;20376;-79
2021/06/05 02:53:08;;;;;;;13.30;12.10;;;;;;;;;;5090338;28;20379;-82
2021/06/05 02:55:34;;;;;;;14.05;12.75;;;;;;;;;;5090381;28;20805;-83
2021/06/05 02:58:00;;;;;;;13.38;12.27;;;;;;;;;;5090413;28;20886;-81
2021/06/05 03:00:26;;;;;;;13.45;12.25;;;;;;;;;;5090221;28;20431;-83
2021/06/05 03:02:52;;;;;;;13.55;12.20;;;;;;;;;;5090220;28;20376;-78
2021/06/05 03:05:19;;;;;;;12.57;11.48;;;;;;;;;;5090035;28;20404;-80
2021/06/05 03:07:45;;;;;;;12.75;11.55;;;;;;;;;;5090202;28;20375;-80
2021/06/05 03:10:11;;;;;;;12.35;11.23;;;;;;;;;;5072041;28;20373;-83
2021/06/05 03:12:38;;;;;;;13.52;12.23;;;;;;;;;;5089914;28;20375;-79
2021/06/05 03:15:05;;;;;;;13.80;12.50;;;;;;;;;;5089859;28;20372;-81
2021/06/05 03:17:31;;;;;;;13.77;12.48;;;;;;;;;;5089694;28;20364;-83
2021/06/05 03:19:57;;;;;;;14.05;12.80;;;;;;;;;;5089907;28;20426;-81
2021/06/05 03:22:23;;;;;;;13.45;12.10;;;;;;;;;;5089186;28;20383;-80
2021/06/05 03:24:51;;;;;;;13.18;11.98;;;;;;;;;;5089618;28;20404;-82
2021/06/05 03:27:17;;;;;;;12.57;11.32;;;;;;;;;;5089866;28;20514;-81
2021/06/05 03:29:43;;;;;;;13.48;11.98;;;;;;;;;;5089542;28;20372;-78
2021/06/05 03:32:10;;;;;;;12.70;11.50;;;;;;;;;;5089866;28;20376;-79
2021/06/05 03:34:35;;;;;;;13.85;12.38;;;;;;;;;;5089612;28;20375;-81
2021/06/05 03:37:01;;;;;;;12.63;11.43;;;;;;;;;;5089769;28;20463;-78
2021/06/05 03:39:27;;;;;;;12.65;11.45;;;;;;;;;;5089569;28;20377;-79
2021/06/05 03:41:54;;;;;;;13.00;11.60;;;;;;;;;;5071401;28;20389;-80
2021/06/05 03:44:20;;;;;;;12.55;11.45;;;;;;;;;;5089055;28;20498;-78
2021/06/05 03:46:47;;;;;;;12.48;11.27;;;;;;;;;;5089478;28;20924;-81
2021/06/05 03:49:13;;;;;;;12.10;10.90;;;;;;;;;;5071111;28;20373;-79
2021/06/05 03:51:39;;;;;;;12.00;10.88;;;;;;;;;;5089393;28;20357;-84
2021/06/05 03:54:05;;;;;;;11.77;10.60;;;;;;;;;;5089216;28;20718;-84
2021/06/05 03:56:31;;;;;;;11.47;10.47;;;;;;;;;;5071252;28;20485;-80
2021/06/05 03:58:58;;;;;;;11.03;9.93;;;;;;;;;;5088904;28;20376;-82
2021/06/05 04:01:25;;;;;;;10.70;9.70;;;;;;;;;;5088942;28;20563;-80
2021/06/05 04:03:52;;;;;;;11.35;10.35;;;;;;;;;;5071401;28;20373;-83
2021/06/05 04:06:20;;;;;;;11.10;10.10;;;;;;;;;;5070946;28;20742;-81
2021/06/05 04:08:46;;;;;;;11.40;10.30;;;;;;;;;;5071117;28;20376;-82
2021/06/05 04:11:12;;;;;;;10.98;9.90;;;;;;;;;;5070707;28;20388;-82
2021/06/05 04:13:38;;;;;;;10.48;9.57;;;;;;;;;;5070619;28;20430;-78
2021/06/05 04:16:04;;;;;;;11.27;10.18;;;;;;;;;;5088770;28;20426;-83
2021/06/05 04:18:32;;;;;;;12.07;10.13;;;;;;;;;;5070971;28;20372;-81
2021/06/05 04:20:58;;;;;;;10.57;9.57;;;;;;;;;;5088848;28;20872;-80
2021/06/05 04:23:25;;;;;;;10.07;9.18;;;;;;;;;;5088796;28;20781;-81
2021/06/05 04:25:51;;;;;;;11.10;10.00;;;;;;;;;;5088874;28;20454;-82
2021/06/05 04:28:18;;;;;;;11.10;10.00;;;;;;;;;;5088778;28;20372;-81
2021/06/05 04:30:44;;;;;;;10.57;9.48;;;;;;;;;;5088754;28;20391;-83
2021/06/05 04:33:11;;;;;;;10.32;9.32;;;;;;;;;;5090120;28;20364;-81
2021/06/05 04:35:37;;;;;;;10.30;9.27;;;;;;;;;;5093152;28;20431;-82
2021/06/05 04:38:04;;;;;;;11.27;9.05;;;;;;;;;;5074572;28;20376;-77
2021/06/05 04:40:30;;;;;;;9.52;8.57;;;;;;;;;;5074442;28;20371;-82
2021/06/05 04:42:57;;;;;;;9.77;8.40;;;;;;;;;;5092794;28;20398;-80
2021/06/05 04:45:23;;;;;;;9.98;8.60;;;;;;;;;;5092607;28;20409;-81
2021/06/05 04:47:49;;;;;;;9.60;8.60;;;;;;;;;;5092901;28;20846;-80
2021/06/05 04:50:16;;;;;;;9.02;8.13;;;;;;;;;;5092642;28;20356;-81
2021/06/05 04:52:42;;;;;;;9.77;8.00;;;;;;;;;;5092565;28;20375;-80
2021/06/05 04:55:09;;;;;;;9.07;8.23;;;;;;;;;;5092502;28;20372;-80
2021/06/05 04:57:35;;;;;;;9.60;8.52;;;;;;;;;;5092530;28;20373;-83
2021/06/05 05:00:01;;;;;;;23.15;8.95;;;;;;;;;;5092465;28;20417;-80
2021/06/05 05:02:27;;;;;;;9.15;7.93;;;;;;;;;;5092321;28;20858;-81
2021/06/05 05:04:53;;;;;;;8.47;7.67;;;;;;;;;;5092222;28;20479;-81
2021/06/05 05:07:19;;;;;;;8.60;7.60;;;;;;;;;;5092115;28;20360;-82
2021/06/05 05:09:46;;;;;;;8.88;7.97;;;;;;;;;;5073627;28;20372;-82
2021/06/05 05:12:12;;;;;;;9.00;8.10;;;;;;;;;;5092268;28;20372;-81
2021/06/05 05:14:38;;;;;;;11.20;8.20;;;;;;;;;;5092137;28;20372;-84
2021/06/05 05:17:05;;;;;;;7.97;7.17;;;;;;;;;;5092274;28;20414;-79
2021/06/05 05:19:31;;;;;;;8.18;7.35;;;;;;;;;;5092020;28;20372;-81
2021/06/05 05:21:58;;;;;;;9.07;7.40;;;;;;;;;;5091879;28;20376;-84
2021/06/05 05:24:24;;;;;;;8.60;7.10;;;;;;;;;;5073614;28;20963;-82
2021/06/05 05:26:50;;;;;;;7.70;7.03;;;;;;;;;;5091989;28;20372;-83
2021/06/05 05:29:16;;;;;;;9.20;7.13;;;;;;;;;;5073809;28;20874;-84
2021/06/05 05:31:43;;;;;;;7.85;7.07;;;;;;;;;;5091813;28;20426;-82
2021/06/05 05:34:09;;;;;;;9.35;6.72;;;;;;;;;;5091719;28;20427;-81
2021/06/05 05:36:36;;;;;;;7.65;6.38;;;;;;;;;;5091666;28;20376;-80
2021/06/05 05:39:04;;;;;;;6.72;6.03;;;;;;;;;;5091726;28;20376;-83
2021/06/05 05:41:30;;;;;;;8.37;6.23;;;;;;;;;;5091407;28;20865;-83
2021/06/05 05:43:56;;;;;;;6.65;5.85;;;;;;;;;;5091780;28;20820;-82
2021/06/05 05:46:23;;;;;;;7.22;5.75;;;;;;;;;;5090684;28;20356;-84
2021/06/05 05:48:49;;;;;;;7.57;6.20;;;;;;;;;;5091712;28;20399;-81
2021/06/05 05:51:16;;;;;;;6.88;5.93;;;;;;;;;;5091314;28;20397;-82
2021/06/05 05:53:42;;;;;;;8.07;6.10;;;;;;;;;;5091700;28;20368;-79
2021/06/05 05:56:09;;;;;;;7.35;6.10;;;;;;;;;;5091698;28;20742;-81
2021/06/05 05:58:36;;;;;;;6.50;5.73;;;;;;;;;;5091718;28;20364;-81
2021/06/05 06:01:04;;;;;;;6.63;6.00;;;;;;;;;;5091468;28;20411;-83
2021/06/05 06:03:30;;;;;;;7.07;5.85;;;;;;;;;;5090760;28;20384;-80
2021/06/05 06:05:56;;;;;;;7.10;6.00;;;;;;;;;;5090876;28;20392;-80
2021/06/05 06:08:22;;;;;;;5.72;5.13;;;;;;;;;;5091027;28;20368;-82
2021/06/05 06:10:49;;;;;;;5.60;5.10;;;;;;;;;;5090697;28;20766;-82
2021/06/05 06:13:15;;;;;;;6.38;5.00;;;;;;;;;;5090787;28;20471;-82
2021/06/05 06:15:41;;;;;;;7.50;5.35;;;;;;;;;;5072797;28;20376;-85
2021/06/05 06:18:08;;;;;;;6.00;4.82;;;;;;;;;;5091226;28;20372;-80
2021/06/05 06:20:53;;;;;;;6.32;5.05;;;;;;;;;;5072447;28;20750;-83
2021/06/05 06:23:21;;;;;;;5.30;4.80;;;;;;;;;;5090989;28;20369;-82
2021/06/05 06:25:50;;;;;;;5.60;4.68;;;;;;;;;;5072262;28;20397;-83
2021/06/05 06:28:17;;;;;;;7.95;4.95;;;;;;;;;;5072927;28;20873;-85
2021/06/05 06:30:43;;;;;;;6.47;4.70;;;;;;;;;;5091010;28;20439;-82
2021/06/05 06:33:10;;;;;;;20.10;6.00;;;;;;;;;;5090624;28;20432;-85
2021/06/05 06:35:38;;;;;;;21.30;5.90;;;;;;;;;;5072512;28;20858;-82
2021/06/05 06:38:04;;;;;;;19.77;5.40;;;;;;;;;;5090912;28;20861;-87
2021/06/05 06:40:38;;;;;;;5.07;4.18;;;;;;;;;;5090902;28;20371;-87
2021/06/05 06:43:05;;;;;;;6.38;3.90;;;;;;;;;;5090909;28;20368;-80
2021/06/05 06:45:30;;;;;;;23.73;5.23;;;;;;;;;;5090772;28;20408;-86
2021/06/05 06:47:57;;;;;;;5.03;3.90;;;;;;;;;;5072671;28;20376;-84
2021/06/05 06:50:24;;;;;;;8.73;4.53;;;;;;;;;;5090747;28;20365;-88
2021/06/05 06:52:51;;;;;;;6.25;4.03;;;;;;;;;;5072258;28;20781;-83
2021/06/05 06:55:18;;;;;;;73.57;8.45;;;;;;;;;;5090059;28;20376;-84
2021/06/05 06:57:44;;;;;;;6.22;3.92;;;;;;;;;;5089723;28;20364;-86
2021/06/05 07:00:12;;;;;;;5.70;4.20;;;;;;;;;;5089858;28;20377;-83
2021/06/05 07:02:38;;;;;;;4.68;3.55;;;;;;;;;;5072023;28;20369;-86
2021/06/05 07:05:05;;;;;;;8.07;3.93;;;;;;;;;;5089946;28;20411;-88
2021/06/05 07:07:31;;;;;;;5.07;3.60;;;;;;;;;;5071845;28;20400;-84
2021/06/05 07:09:57;;;;;;;5.78;4.30;;;;;;;;;;5089639;28;20361;-86
2021/06/05 07:12:23;;;;;;;7.25;4.07;;;;;;;;;;5089944;28;20381;-85
2021/06/05 07:14:49;;;;;;;12.83;4.10;;;;;;;;;;5071993;28;20944;-88
2021/06/05 07:17:16;;;;;;;3.97;3.53;;;;;;;;;;5089997;28;20368;-87
2021/06/05 07:19:42;;;;;;;5.25;3.80;;;;;;;;;;5090098;28;20380;-84
2021/06/05 07:22:08;;;;;;;6.70;3.65;;;;;;;;;;5089956;28;20466;-81
2021/06/05 07:24:34;;;;;;;4.32;3.55;;;;;;;;;;5089356;28;20396;-87
2021/06/05 07:27:00;;;;;;;3.93;3.53;;;;;;;;;;5089572;28;20447;-86
2021/06/05 07:29:26;;;;;;;6.43;3.60;;;;;;;;;;5089479;28;20372;-87
2021/06/05 07:31:53;;;;;;;4.60;3.58;;;;;;;;;;5089882;28;20441;-87
2021/06/05 07:34:23;;;;;;;4.83;3.60;;;;;;;;;;5089850;28;20361;-90
2021/06/05 07:36:51;;;;;;;6.22;3.70;;;;;;;;;;5089674;28;20376;-85
2021/06/05 07:39:19;;;;;;;90.80;12.15;;;;;;;;;;5089798;28;20456;-81
2021/06/05 07:41:45;;;;;;;4.30;3.47;;;;;;;;;;5089958;28;20419;-85
2021/06/05 07:44:11;;;;;;;7.20;3.53;;;;;;;;;;5089931;28;20407;-86
2021/06/05 07:46:45;;;;;;;5.53;3.60;;;;;;;;;;5071498;28;20427;-83
2021/06/05 07:49:10;;;;;;;4.03;3.50;;;;;;;;;;5089635;28;20407;-83
2021/06/05 07:51:37;;;;;;;4.85;3.80;;;;;;;;;;5071972;28;20377;-88
2021/06/05 07:54:03;;;;;;;4.82;3.58;;;;;;;;;;5071802;28;20384;-81
2021/06/05 07:56:29;;;;;;;4.93;3.63;;;;;;;;;;5089514;28;20449;-82
2021/06/05 07:58:55;;;;;;;4.07;3.57;;;;;;;;;;5089898;28;20431;-81
2021/06/05 08:01:22;;;;;;;5.55;4.05;;;;;;;;;;5071352;28;20375;-82
2021/06/05 08:03:49;;;;;;;44.42;7.70;;;;;;;;;;5071755;28;20897;-86
2021/06/05 08:06:14;;;;;;;10.13;4.20;;;;;;;;;;5089316;28;20396;-83
2021/06/05 08:08:40;;;;;;;4.57;3.53;;;;;;;;;;5089242;28;20450;-86
2021/06/05 08:11:06;;;;;;;4.60;3.60;;;;;;;;;;5089374;28;20723;-81
2021/06/05 08:13:32;;;;;;;9.93;3.78;;;;;;;;;;5089258;28;20369;-87
2021/06/05 08:15:58;;;;;;;11.02;3.75;;;;;;;;;;5089392;28;20377;-87
2021/06/05 08:18:24;;;;;;;4.40;3.60;;;;;;;;;;5088934;28;20376;-86
2021/06/05 08:20:55;;;;;;;8.68;3.88;;;;;;;;;;5089085;28;20739;-85
2021/06/05 08:23:22;;;;;;;57.47;7.63;;;;;;;;;;5089166;28;20373;-90
2021/06/05 08:25:49;;;;;;;3.78;3.38;;;;;;;;;;5089413;28;20400;-88
2021/06/05 08:28:15;;;;;;;7.83;3.80;;;;;;;;;;5071081;28;20388;-84
2021/06/05 08:30:46;;;;;;;4.57;3.67;;;;;;;;;;5070738;28;20416;-83
2021/06/05 08:33:13;;;;;;;6.43;3.20;;;;;;;;;;5088532;28;20384;-89
2021/06/05 08:35:39;;;;;;;5.68;3.70;;;;;;;;;;5070612;28;20430;-82
2021/06/05 08:38:06;;;;;;;4.78;3.25;;;;;;;;;;5087813;28;20466;-84
2021/06/05 08:40:41;;;;;;;3.73;3.10;;;;;;;;;;5088138;28;20376;-88
2021/06/05 08:43:08;;;;;;;4.85;3.17;;;;;;;;;;5068355;28;20735;-86
2021/06/05 08:45:34;;;;;;;3.13;2.83;;;;;;;;;;5087722;28;20404;-86
2021/06/05 08:48:05;;;;;;;5.55;3.40;;;;;;;;;;5069542;28;20377;-84
2021/06/05 08:50:32;;;;;;;4.55;3.13;;;;;;;;;;5087236;28;20376;-85
2021/06/05 08:53:07;;;;;;;7.07;3.42;;;;;;;;;;5087190;28;20377;-83
2021/06/05 08:55:37;;;;;;;5.53;3.28;;;;;;;;;;5087817;28;20376;-85
2021/06/05 08:58:03;;;;;;;4.18;2.97;;;;;;;;;;5088091;28;20445;-83
2021/06/05 09:00:29;;;;;;;4.50;3.25;;;;;;;;;;5087876;28;20368;-86
2021/06/05 09:02:57;;;;;;;5.40;3.13;;;;;;;;;;5068634;28;20401;-85
2021/06/05 09:05:27;;;;;;;21.25;4.18;;;;;;;;;;5087378;28;20393;-85
2021/06/05 09:07:53;;;;;;;3.90;3.30;;;;;;;;;;5087087;28;20368;-84
2021/06/05 09:10:20;;;;;;;4.80;3.17;;;;;;;;;;5086378;28;20379;-86
2021/06/05 09:12:46;;;;;;;3.45;3.15;;;;;;;;;;5067937;28;20443;-86
2021/06/05 09:15:32;;;;;;;7.30;3.33;;;;;;;;;;5086930;28;20453;-85
2021/06/05 09:18:00;;;;;;;5.07;3.22;;;;;;;;;;5060876;28;20893;-85
2021/06/05 09:20:26;;;;;;;3.25;2.90;;;;;;;;;;5089856;28;20857;-84
2021/06/05 09:22:52;;;;;;;8.40;3.43;;;;;;;;;;5092056;28;20372;-83
2021/06/05 09:25:24;;;;;;;26.50;5.10;;;;;;;;;;5091813;28;20466;-83
2021/06/05 09:27:50;;;;;;;10.00;3.55;;;;;;;;;;5092218;28;20372;-81
2021/06/05 09:30:36;;;;;;;5.97;3.30;;;;;;;;;;5073904;28;20730;-89
2021/06/05 09:33:07;;;;;;;7.22;3.30;;;;;;;;;;5092443;28;20373;-84
2021/06/05 09:35:40;;;;;;;5.45;3.42;;;28.40;79.20;;;;;;5091987;28;20376;-85
2021/06/05 09:38:13;;;;;;;5.85;3.10;;;28.40;80.00;;;;;;5091705;28;20458;-83
2021/06/05 09:40:53;;;;;;;4.25;3.35;;;28.50;81.10;;;;;;5091490;28;20372;-83
2021/06/05 09:43:22;;;;;;;5.47;3.33;;;28.60;82.60;;;;;;5091418;28;20434;-83
2021/06/05 09:46:08;;;;;;;5.90;3.20;;;28.50;79.00;;;;;;5091424;28;20397;-82
2021/06/05 09:48:43;;;;;;;4.80;3.45;;;28.30;79.70;;;;;;5073107;28;20384;-84
2021/06/05 09:51:38;;;;;;;3.85;3.08;;;28.10;81.50;;;;;;5073129;28;20381;-86
2021/06/05 09:54:12;;;;;;;5.93;3.45;;;28.30;80.80;;;;;;5090866;28;20429;-83
2021/06/05 09:56:44;;;;;;;4.60;3.67;;;28.00;80.30;;;;;;5091185;28;20381;-82
2021/06/05 09:59:15;;;;;;;4.22;3.28;;;27.80;79.40;;;;;;5090570;28;20878;-80
2021/06/05 10:01:42;;;;;;;6.20;3.53;;;27.60;80.50;;;;;;5087134;28;20898;-84
2021/06/05 10:04:08;;;;;;;5.70;3.70;;;27.60;83.00;;;;;;5079312;28;20373;-82
2021/06/05 10:06:35;;;;;;;6.18;3.50;;;27.80;84.40;;;;;;5063978;28;20456;-80
2021/06/05 10:09:24;;;;;;;5.65;3.50;;;28.00;83.50;;;;;;5080327;28;20468;-84
2021/06/05 10:12:02;;;;;;;4.85;3.45;;;28.20;82.00;;;;;;5071218;28;20401;-81
2021/06/05 10:14:33;;;;;;;3.70;3.33;;;28.20;79.90;;;;;;5068608;28;20397;-80
2021/06/05 10:17:09;;;;;;;5.15;3.30;;;27.90;80.80;;;;;;5071648;28;20400;-82
2021/06/05 10:19:43;;;;;;;6.97;3.40;;;27.70;80.10;;;;;;5067330;28;20801;-82
2021/06/05 10:22:10;;;;;;;4.03;3.25;;;27.30;82.30;;;;;;5071252;28;20887;-83
2021/06/05 10:24:35;;;;;;;4.88;3.78;;;27.40;83.60;;;;;;5089234;28;21087;-82
2021/06/05 10:27:11;;;;;;;4.93;3.63;;;27.60;86.10;;;;;;5086795;28;20480;-82
2021/06/05 10:29:47;;;;;;;5.75;3.30;;;27.60;81.60;;;;;;5088414;28;20382;-81
2021/06/05 10:32:25;;;;;;;4.60;3.50;;;27.70;81.60;;;;;;5088802;28;20385;-80
2021/06/05 10:34:57;;;;;;;7.53;3.70;;;27.80;80.90;;;;;;5087844;28;20391;-78
2021/06/05 10:37:26;;;;;;;5.57;3.63;;;27.60;80.20;;;;;;5069417;28;20407;-83
2021/06/05 10:39:53;;;;;;;4.13;3.73;;;27.60;81.10;;;;;;5079791;28;20422;-80
2021/06/05 10:42:25;;;;;;;7.22;4.30;;;27.70;82.90;;;;;;5078348;28;20402;-84
2021/06/05 10:44:52;;;;;;;6.30;3.80;;;28.00;84.20;;;;;;5060422;28;20408;-83
2021/06/05 10:47:24;;;;;;;4.45;3.63;;;28.30;83.10;;;;;;5088760;28;20376;-81
2021/06/05 10:50:01;;;;;;;4.90;3.60;;;28.30;80.30;;;;;;5089351;28;20380;-83
2021/06/05 10:52:41;;;;;;;68.13;9.43;;;28.20;80.00;;;;;;5070699;28;20392;-82
2021/06/05 10:55:43;;;;;;;52.20;7.68;;;27.90;80.00;;;;;;5089199;28;20373;-81
2021/06/05 10:58:08;;;;;;;9.03;3.73;;;27.90;80.00;;;;;;5044135;28;20396;-83
2021/06/05 11:00:43;;;;;;;7.10;3.38;;;27.80;80.20;;;;;;5089139;28;20785;-81
2021/06/05 11:03:27;;;;;;;6.55;4.10;;;27.50;80.20;;;;;;5087949;28;20390;-82
2021/06/05 11:05:58;;;;;;;4.47;3.73;;;27.30;80.20;;;;;;5089714;28;20397;-81
2021/06/05 11:08:24;;;;;;;4.47;3.58;;;27.10;80.70;;;;;;5089057;28;20917;-82
2021/06/05 11:11:02;;;;;;;4.80;3.50;;;27.20;81.90;;;;;;5088334;28;20388;-81
2021/06/05 11:16:04;;;;;;;5.80;3.85;;;27.40;81.30;;;;;;5089704;28;20373;-83
2021/06/05 11:18:34;;;;;;;18.83;4.43;;;27.60;81.10;;;;;;5088967;28;20735;-80
2021/06/05 11:21:22;;;;;;;5.60;3.60;;;27.60;81.60;;;;;;5088908;28;20399;-86
2021/06/05 11:23:59;;;;;;;5.07;3.50;;;27.70;80.60;;;;;;5086478;28;20391;-81
2021/06/05 11:26:34;;;;;;;6.05;3.42;;;27.80;80.20;;;;;;5088895;28;20382;-80
2021/06/05 11:29:02;;;;;;;5.50;3.47;;;27.50;79.20;;;;;;5086891;28;20372;-87
2021/06/05 11:31:41;;;;;;;5.60;3.60;;;27.50;80.50;;;;;;5088238;28;20372;-82
2021/06/05 11:34:28;;;;;;;3.55;3.25;;;27.50;80.90;;;;;;5086736;28;20377;-83
2021/06/05 11:37:20;;;;;;;4.43;3.77;;;27.60;83.60;;;;;;5086265;28;20369;-82
2021/06/05 11:40:09;;;;;;;3.42;3.00;;;27.60;80.00;;;;;;5069690;28;20381;-80
2021/06/05 11:42:53;;;;;;;95.82;9.13;;;27.70;80.00;;;;;;5087082;28;20480;-79
2021/06/05 11:45:22;;;;;;;28.10;5.18;;;27.70;80.00;;;;;;5087322;28;20430;-78
2021/06/05 11:47:48;;;;;;;5.68;3.30;;;27.80;79.50;;;;;;5090738;28;20372;-81
2021/06/05 11:50:34;;;;;;;7.73;3.97;;;27.70;78.90;;;;;;5091697;28;20388;-81
2021/06/05 11:53:24;;;;;;;9.13;3.65;;;27.80;82.60;;;;;;5090010;28;20369;-82
2021/06/05 11:55:55;;;;;;;172.30;16.90;;;28.10;81.90;;;;;;5085753;28;20376;-83
2021/06/05 11:58:21;;;;;;;4.55;3.35;;;28.30;80.60;;;;;;5086039;28;20391;-82
2021/06/05 12:00:58;;;;;;;6.38;3.58;;;28.30;78.60;;;;;;5088390;28;20379;-83
2021/06/05 12:03:33;;;;;;;204.77;20.30;;;28.20;76.20;;;;;;5087731;28;20379;-84
2021/06/05 12:06:13;;;;;;;17.58;4.30;;;28.00;77.40;;;;;;5086328;28;20444;-79
2021/06/05 12:08:39;;;;;;;9.32;4.32;;;27.90;78.80;;;;;;5085922;28;20451;-83
2021/06/05 12:11:27;;;;;;;6.07;3.40;;;27.90;77.50;;;;;;5088203;28;20380;-84
2021/06/05 12:14:16;;;;;;;6.15;3.30;;;27.90;80.10;;;;;;5087292;28;20372;-82
2021/06/05 12:16:50;;;;;;;5.20;3.67;;;28.00;78.50;;;;;;5069313;28;20427;-82
2021/06/05 12:19:16;;;;;;;36.97;6.00;;;28.10;76.50;;;;;;5086674;28;20384;-81
2021/06/05 12:21:44;;;;;;;19.27;5.03;;;27.90;77.00;;;;;;5088741;28;20858;-88
2021/06/05 12:24:24;;;;;;;4.00;3.05;;;27.80;77.20;;;;;;5070595;28;20750;-81
2021/06/05 12:26:59;;;;;;;6.55;3.65;;;27.90;76.40;;;;;;5088451;28;20388;-82
2021/06/05 12:29:30;;;;;;;4.18;3.30;;;27.90;77.20;;;;;;5088028;28;20387;-84
2021/06/05 12:31:57;;;;;;;6.63;3.37;;;27.90;77.90;;;;;;5088349;28;20385;-87
2021/06/05 12:34:37;;;;;;;13.68;3.70;;;27.90;78.80;;;;;;5088688;28;20422;-81
2021/06/05 12:37:15;;;;;;;4.03;3.30;;;28.00;76.90;;;;;;5088272;28;20419;-81
2021/06/05 12:39:51;;;;;;;6.50;3.63;;;28.10;76.60;;;;;;5088410;28;20391;-84
2021/06/05 12:42:29;;;;;;;3.90;3.30;;;28.10;76.60;;;;;;5088540;28;20364;-80
2021/06/05 12:45:00;;;;;;;17.58;7.32;;;28.10;72.90;;;;;;5070594;28;21043;-79
2021/06/05 12:47:30;;;;;;;6.60;3.40;;;27.90;73.60;;;;;;5087498;28;20415;-82
2021/06/05 12:49:57;;;;;;;4.70;2.80;;;27.90;74.50;;;;;;5087372;28;20380;-81
2021/06/05 12:52:27;;;;;;;4.75;2.90;;;27.90;75.90;;;;;;5070482;28;20388;-80
2021/06/05 12:55:13;;;;;;;3.13;2.80;;;27.90;75.00;;;;;;5071225;28;20747;-81
2021/06/05 12:58:01;;;;;;;7.93;3.25;;;28.00;74.50;;;;;;5091783;28;20399;-85
2021/06/05 13:00:29;;;;;;;3.15;2.85;;;28.00;73.80;;;;;;5073845;28;20390;-82
2021/06/05 13:03:17;;;;;;;4.22;2.90;;;28.20;75.80;;;;;;5092267;28;20887;-80
2021/06/05 13:06:07;;;;;;;6.93;3.25;;;28.20;70.90;;;;;;5071857;28;20408;-80
2021/06/05 13:08:40;;;;;;;6.90;3.33;;;28.20;73.70;;;;;;5090212;28;20427;-80
2021/06/05 13:11:11;;;;;;;4.38;3.08;;;28.30;74.10;;;;;;5090952;28;20388;-82
2021/06/05 13:13:38;;;;;;;5.65;3.10;;;28.40;74.10;;;;;;5091554;28;20380;-79
2021/06/05 13:16:09;;;;;;;5.03;3.10;;;28.30;72.40;;;;;;5092032;28;20368;-79
2021/06/05 13:18:46;;;;;;;4.30;3.03;;;28.30;71.60;;;;;;5073657;28;20387;-82
2021/06/05 13:21:27;;;;;;;4.77;3.17;;;28.10;73.40;;;;;;5073550;28;20458;-81
2021/06/05 13:24:14;;;;;;;4.13;2.47;;;28.20;73.40;;;;;;5092360;28;20376;-80
2021/06/05 13:26:43;;;;;;;3.30;2.90;;;28.30;70.90;;;;;;5091399;28;20727;-79
2021/06/05 13:29:27;;;;;;;5.00;2.83;;;28.20;72.10;;;;;;5073042;28;20381;-81
2021/06/05 13:32:06;;;;;;;4.50;3.00;;;28.30;72.80;;;;;;5090903;28;20785;-83
2021/06/05 13:34:38;;;;;;;3.53;3.22;;;28.20;73.20;;;;;;5073395;28;21005;-80
2021/06/05 13:37:18;;;;;;;4.43;2.50;;;28.30;73.50;;;;;;5091064;28;20377;-81
2021/06/05 13:39:45;;;;;;;4.40;3.03;;;28.30;74.10;;;;;;5089894;28;20372;-80
2021/06/05 13:42:11;;;;;;;4.28;3.10;;;28.40;70.40;;;;;;5091219;28;20380;-80
2021/06/05 13:44:38;;;;;;;5.43;3.30;;;28.40;71.10;;;;;;5090834;28;20520;-82
2021/06/05 13:47:14;;;;;;;3.33;2.97;;;28.40;72.50;;;;;;5090809;28;20377;-82
2021/06/05 13:49:41;;;;;;;3.37;2.80;;;28.30;72.60;;;;;;5070158;28;20385;-82
2021/06/05 13:52:29;;;;;;;3.38;3.08;;;28.20;72.40;;;;;;5090666;28;20364;-81
2021/06/05 13:55:18;;;;;;;4.80;3.15;;;28.40;72.90;;;;;;5090180;28;20735;-81
2021/06/05 13:57:44;;;;;;;44.97;6.85;;;28.40;72.80;;;;;;5090843;28;20384;-80
2021/06/05 14:00:12;;;;;;;6.22;3.35;;;28.40;72.20;;;;;;5090408;28;20371;-79
2021/06/05 14:02:38;;;;;;;10.45;3.75;;;28.40;73.00;;;;;;5071976;28;20369;-82
2021/06/05 14:05:05;;;;;;;3.70;3.20;;;28.20;72.80;;;;;;5090267;28;20450;-80
2021/06/05 14:07:31;;;;;;;4.22;3.53;;;28.10;73.70;;;;;;5089945;28;20377;-80
2021/06/05 14:09:56;;;;;;;17.15;4.43;;;28.20;72.70;;;;;;5090117;28;20383;-78
2021/06/05 14:12:26;;;;;;;4.63;2.93;;;28.20;74.70;;;;;;5090118;28;20420;-79